createdAt,value
2023-01-28T00:55:43.407Z,24.04
2023-01-28T00:56:44.388Z,24.01
2023-01-28T00:57:44.408Z,24.04
2023-01-28T00:58:44.341Z,24.04
2023-01-28T00:59:44.367Z,24.07
2023-01-28T01:00:44.318Z,24.05
2023-01-28T01:01:44.408Z,24.05
2023-01-28T01:02:44.354Z,24.05
2023-01-28T01:03:44.311Z,24.05
2023-01-28T01:04:44.274Z,24.05
2023-01-28T01:05:44.299Z,24.07
2023-01-28T01:06:44.272Z,24.07
2023-01-28T01:07:44.241Z,24.05
2023-01-28T01:08:44.250Z,24.07
2023-01-28T01:09:44.241Z,24.05
2023-01-28T01:10:44.219Z,24.02
2023-01-28T01:18:44.159Z,24.02
2023-01-28T01:45:43.923Z,24.02
2023-01-28T01:52:43.852Z,24.02
2023-01-28T01:58:43.787Z,24.04
2023-01-28T01:59:43.813Z,24.05
2023-01-28T02:01:43.757Z,24.04
2023-01-28T02:02:43.744Z,24.04
2023-01-28T02:03:43.851Z,24.04
2023-01-28T02:04:43.728Z,24.04
2023-01-28T02:06:43.715Z,24.02
2023-01-28T02:07:43.711Z,24.01
2023-01-28T02:08:43.693Z,24.04
2023-01-28T02:09:43.685Z,24.02
2023-01-28T02:11:43.659Z,24.01
2023-01-28T02:12:43.653Z,24.00
2023-01-28T02:13:43.652Z,24.01
2023-01-28T02:14:43.631Z,24.01
2023-01-28T02:15:43.650Z,24.01
2023-01-28T02:16:43.644Z,24.01
2023-01-28T02:17:43.612Z,24.02
2023-01-28T02:18:43.607Z,24.01
2023-01-28T02:19:43.605Z,24.02
2023-01-28T02:20:43.580Z,24.02
2023-01-28T02:21:43.569Z,24.01
2023-01-28T02:22:43.565Z,24.02
2023-01-28T02:23:43.556Z,24.02
2023-01-28T02:24:43.559Z,24.00
2023-01-28T02:25:43.535Z,24.02
2023-01-28T02:26:43.523Z,24.02
2023-01-28T02:27:43.517Z,24.01
2023-01-28T02:28:43.509Z,24.01
2023-01-28T02:29:43.494Z,24.02
2023-01-28T02:30:43.574Z,24.02
2023-01-28T02:31:43.753Z,24.02
2023-01-28T02:32:43.475Z,24.02
2023-01-28T02:33:43.461Z,24.01
2023-01-28T02:34:43.454Z,24.01
2023-01-28T02:35:43.442Z,24.01
2023-01-28T02:36:43.428Z,24.01
2023-01-28T02:37:43.427Z,24.01
2023-01-28T02:38:43.415Z,24.01
2023-01-28T02:39:43.403Z,24.02
2023-01-28T02:40:43.395Z,24.04
2023-01-28T02:41:43.390Z,24.02
2023-01-28T02:42:43.397Z,24.02
2023-01-28T02:43:43.377Z,24.02
2023-01-28T02:44:43.365Z,24.00
2023-01-28T02:45:43.353Z,24.01
2023-01-28T02:46:43.342Z,24.01
2023-01-28T02:47:43.359Z,24.01
2023-01-28T02:48:43.324Z,24.01
2023-01-28T02:49:43.320Z,24.01
2023-01-28T02:50:43.305Z,24.01
2023-01-28T02:51:43.299Z,24.00
2023-01-28T02:52:43.294Z,24.01
2023-01-28T02:53:43.286Z,24.00
2023-01-28T02:54:43.268Z,24.00
2023-01-28T02:55:43.259Z,24.02
2023-01-28T02:56:43.249Z,23.98
2023-01-28T02:57:43.243Z,24.00
2023-01-28T02:58:43.244Z,24.00
2023-01-28T02:59:43.228Z,24.00
2023-01-28T03:00:43.213Z,24.00
2023-01-28T03:01:43.351Z,24.01
2023-01-28T03:02:43.275Z,23.98
2023-01-28T03:03:43.215Z,23.98
2023-01-28T03:04:43.183Z,24.00
2023-01-28T03:05:43.170Z,23.98
2023-01-28T03:06:43.159Z,24.01
2023-01-28T03:07:43.154Z,24.00
2023-01-28T03:08:43.143Z,23.98
2023-01-28T03:09:43.142Z,24.00
2023-01-28T03:10:43.130Z,24.00
2023-01-28T03:11:43.121Z,24.00
2023-01-28T03:12:43.109Z,23.98
2023-01-28T03:13:43.098Z,24.00
2023-01-28T03:14:43.092Z,23.98
2023-01-28T03:15:43.106Z,23.97
2023-01-28T03:16:43.071Z,23.98
2023-01-28T03:17:43.065Z,24.00
2023-01-28T03:18:43.053Z,23.98
2023-01-28T03:19:43.080Z,24.00
2023-01-28T03:20:43.035Z,24.00
2023-01-28T03:21:43.031Z,23.98
2023-01-28T03:22:43.024Z,24.00
2023-01-28T03:23:43.011Z,24.00
2023-01-28T03:24:43.010Z,24.00
2023-01-28T03:25:42.988Z,24.00
2023-01-28T03:26:42.983Z,24.01
2023-01-28T03:27:42.971Z,24.00
2023-01-28T03:28:42.966Z,24.00
2023-01-28T03:29:42.956Z,23.97
2023-01-28T03:30:42.998Z,24.00
2023-01-28T03:31:42.934Z,23.98
2023-01-28T03:32:42.926Z,24.00
2023-01-28T03:33:42.919Z,24.02
2023-01-28T03:34:42.908Z,23.98
2023-01-28T03:35:42.925Z,23.98
2023-01-28T03:36:42.917Z,23.98
2023-01-28T03:37:42.881Z,23.98
2023-01-28T03:38:42.876Z,23.97
2023-01-28T03:39:42.863Z,23.97
2023-01-28T03:40:42.854Z,23.98
2023-01-28T03:41:42.845Z,24.00
2023-01-28T03:42:42.840Z,24.00
2023-01-28T03:43:42.864Z,23.98
2023-01-28T03:44:42.821Z,23.98
2023-01-28T03:45:42.813Z,23.98
2023-01-28T03:46:42.808Z,23.97
2023-01-28T03:47:42.797Z,23.97
2023-01-28T03:48:42.782Z,23.97
2023-01-28T03:49:42.773Z,23.98
2023-01-28T03:50:42.764Z,23.95
2023-01-28T03:51:42.781Z,23.97
2023-01-28T03:52:42.760Z,23.97
2023-01-28T03:53:42.776Z,23.95
2023-01-28T03:54:42.744Z,23.97
2023-01-28T03:55:42.732Z,23.98
2023-01-28T03:56:42.721Z,23.97
2023-01-28T03:57:42.705Z,23.97
2023-01-28T03:58:42.696Z,23.97
2023-01-28T03:59:42.683Z,23.98
2023-01-28T04:00:42.675Z,23.94
2023-01-28T04:01:42.715Z,23.95
2023-01-28T04:02:42.794Z,23.95
2023-01-28T04:03:42.664Z,23.95
2023-01-28T04:04:42.640Z,23.95
2023-01-28T04:05:42.631Z,23.93
2023-01-28T04:06:42.620Z,23.95
2023-01-28T04:07:42.650Z,23.97
2023-01-28T04:08:42.603Z,23.97
2023-01-28T04:09:42.595Z,23.97
2023-01-28T04:10:42.584Z,23.97
2023-01-28T04:11:42.579Z,23.95
2023-01-28T04:12:42.574Z,23.98
2023-01-28T04:13:42.558Z,23.95
2023-01-28T04:14:42.553Z,23.97
2023-01-28T04:15:42.539Z,23.97
2023-01-28T04:16:42.531Z,24.00
2023-01-28T04:17:42.521Z,24.00
2023-01-28T04:18:42.511Z,23.98
2023-01-28T04:19:42.513Z,23.98
2023-01-28T04:20:42.494Z,23.93
2023-01-28T04:21:42.483Z,23.91
2023-01-28T04:22:42.477Z,23.87
2023-01-28T04:23:42.489Z,23.85
2023-01-28T04:24:42.478Z,23.81
2023-01-28T04:25:42.449Z,23.76
2023-01-28T04:26:42.440Z,23.73
2023-01-28T04:27:42.432Z,23.70
2023-01-28T04:28:42.424Z,23.67
2023-01-28T04:29:42.415Z,23.66
2023-01-28T04:30:42.440Z,23.61
2023-01-28T04:31:42.472Z,23.59
2023-01-28T04:32:42.388Z,23.56
2023-01-28T04:33:42.376Z,23.56
2023-01-28T04:34:42.371Z,23.50
2023-01-28T04:35:42.359Z,23.50
2023-01-28T04:36:42.369Z,23.48
2023-01-28T04:37:42.345Z,23.49
2023-01-28T04:38:42.332Z,23.46
2023-01-28T04:39:42.352Z,23.48
2023-01-28T04:40:42.316Z,23.49
2023-01-28T04:41:42.306Z,23.46
2023-01-28T04:42:42.297Z,23.48
2023-01-28T04:43:42.289Z,23.46
2023-01-28T04:44:42.282Z,23.46
2023-01-28T04:45:42.271Z,23.46
2023-01-28T04:46:42.285Z,23.45
2023-01-28T04:47:42.257Z,23.45
2023-01-28T04:48:42.244Z,23.45
2023-01-28T04:49:42.236Z,23.45
2023-01-28T04:50:42.225Z,23.46
2023-01-28T04:51:42.216Z,23.45
2023-01-28T04:52:42.212Z,23.43
2023-01-28T04:53:42.203Z,23.43
2023-01-28T04:54:42.194Z,23.42
2023-01-28T04:55:42.208Z,23.43
2023-01-28T04:56:42.171Z,23.42
2023-01-28T04:57:42.172Z,23.43
2023-01-28T04:58:42.152Z,23.42
2023-01-28T05:00:42.231Z,23.40
2023-01-28T05:01:42.247Z,23.40
2023-01-28T05:02:42.124Z,23.40
2023-01-28T05:03:42.116Z,23.40
2023-01-28T05:04:42.098Z,23.40
2023-01-28T05:05:42.095Z,23.40
2023-01-28T05:06:42.081Z,23.42
2023-01-28T05:07:42.079Z,23.42
2023-01-28T05:08:42.064Z,23.40
2023-01-28T05:09:42.059Z,23.39
2023-01-28T05:10:42.048Z,23.40
2023-01-28T05:11:42.061Z,23.42
2023-01-28T05:12:42.028Z,23.43
2023-01-28T05:13:42.019Z,23.40
2023-01-28T05:14:42.012Z,23.42
2023-01-28T05:15:42.000Z,23.43
2023-01-28T05:16:41.991Z,23.40
2023-01-28T05:17:42.100Z,23.42
2023-01-28T05:18:44.643Z,23.40
2023-01-28T05:19:41.973Z,23.42
2023-01-28T05:20:41.954Z,23.43
2023-01-28T05:21:41.954Z,23.42
2023-01-28T05:22:41.938Z,23.42
2023-01-28T05:23:41.928Z,23.40
2023-01-28T05:24:41.941Z,23.40
2023-01-28T05:25:41.912Z,23.40
2023-01-28T05:26:41.902Z,23.42
2023-01-28T05:27:41.925Z,23.45
2023-01-28T05:28:41.881Z,23.43
2023-01-28T05:29:41.876Z,23.40
2023-01-28T05:30:41.988Z,23.43
2023-01-28T05:31:41.859Z,23.42
2023-01-28T05:32:41.973Z,23.43
2023-01-28T05:33:41.840Z,23.40
2023-01-28T05:34:41.886Z,23.42
2023-01-28T05:35:41.823Z,23.45
2023-01-28T05:36:41.823Z,23.40
2023-01-28T05:37:41.807Z,23.42
2023-01-28T05:38:41.807Z,23.43
2023-01-28T05:39:41.787Z,23.40
2023-01-28T05:40:41.779Z,23.42
2023-01-28T05:41:41.771Z,23.43
2023-01-28T05:42:41.757Z,23.42
2023-01-28T05:43:41.775Z,23.43
2023-01-28T05:44:41.755Z,23.45
2023-01-28T05:45:41.794Z,23.43
2023-01-28T05:46:41.723Z,23.42
2023-01-28T05:47:43.052Z,23.43
2023-01-28T05:48:41.725Z,23.43
2023-01-28T05:49:41.697Z,23.42
2023-01-28T05:50:41.696Z,23.42
2023-01-28T05:51:41.680Z,23.40
2023-01-28T05:52:41.670Z,23.40
2023-01-28T05:53:41.674Z,23.43
2023-01-28T05:54:41.658Z,23.43
2023-01-28T05:55:41.655Z,23.43
2023-01-28T05:56:41.633Z,23.43
2023-01-28T05:57:41.631Z,23.43
2023-01-28T05:58:41.688Z,23.43
2023-01-28T05:59:41.638Z,23.45
2023-01-28T06:00:41.610Z,23.45
2023-01-28T06:01:41.632Z,23.43
2023-01-28T06:02:41.615Z,23.45
2023-01-28T06:03:41.576Z,23.46
2023-01-28T06:04:41.561Z,23.43
2023-01-28T06:05:41.563Z,23.45
2023-01-28T06:06:41.551Z,23.45
2023-01-28T06:07:41.533Z,23.43
2023-01-28T06:08:41.525Z,23.46
2023-01-28T06:09:41.518Z,23.45
2023-01-28T06:10:41.509Z,23.46
2023-01-28T06:11:41.501Z,23.48
2023-01-28T06:12:41.494Z,23.48
2023-01-28T06:13:41.497Z,23.50
2023-01-28T06:14:41.471Z,23.50
2023-01-28T06:15:41.562Z,23.52
2023-01-28T06:16:41.464Z,23.54
2023-01-28T06:17:41.447Z,23.54
2023-01-28T06:18:41.438Z,23.56
2023-01-28T06:19:41.428Z,23.56
2023-01-28T06:20:41.421Z,23.56
2023-01-28T06:21:41.411Z,23.57
2023-01-28T06:22:41.397Z,23.56
2023-01-28T06:23:41.398Z,23.57
2023-01-28T06:24:41.381Z,23.56
2023-01-28T06:25:41.376Z,23.54
2023-01-28T06:26:41.369Z,23.54
2023-01-28T06:27:41.356Z,23.56
2023-01-28T06:28:41.353Z,23.53
2023-01-28T06:29:41.336Z,23.56
2023-01-28T06:30:41.338Z,23.56
2023-01-28T06:31:41.391Z,23.53
2023-01-28T06:32:41.307Z,23.54
2023-01-28T06:33:41.303Z,23.54
2023-01-28T06:34:41.292Z,23.53
2023-01-28T06:35:41.282Z,23.54
2023-01-28T06:36:41.272Z,23.54
2023-01-28T06:37:41.267Z,23.53
2023-01-28T06:38:41.254Z,23.53
2023-01-28T06:39:41.297Z,23.52
2023-01-28T06:40:41.244Z,23.52
2023-01-28T06:41:41.231Z,23.52
2023-01-28T06:42:41.224Z,23.52
2023-01-28T06:43:41.211Z,23.52
2023-01-28T06:44:41.203Z,23.50
2023-01-28T06:45:41.199Z,23.49
2023-01-28T06:46:41.254Z,23.50
2023-01-28T06:47:41.214Z,23.52
2023-01-28T06:48:41.172Z,23.49
2023-01-28T06:49:41.203Z,23.49
2023-01-28T06:50:41.158Z,23.50
2023-01-28T06:51:41.144Z,23.49
2023-01-28T06:52:41.129Z,23.49
2023-01-28T06:53:41.122Z,23.49
2023-01-28T06:54:41.113Z,23.50
2023-01-28T06:55:41.116Z,23.49
2023-01-28T06:56:41.096Z,23.52
2023-01-28T06:57:41.083Z,23.48
2023-01-28T06:58:41.075Z,23.50
2023-01-28T06:59:41.064Z,23.50
2023-01-28T07:00:41.056Z,23.52
2023-01-28T07:01:41.089Z,23.52
2023-01-28T07:02:41.059Z,23.50
2023-01-28T07:03:41.057Z,23.50
2023-01-28T07:04:41.021Z,23.49
2023-01-28T07:05:41.012Z,23.52
2023-01-28T07:06:41.007Z,23.50
2023-01-28T07:07:42.133Z,23.52
2023-01-28T07:08:40.983Z,23.50
2023-01-28T07:09:40.978Z,23.52
2023-01-28T07:10:40.972Z,23.49
2023-01-28T07:11:40.961Z,23.52
2023-01-28T07:12:40.956Z,23.52
2023-01-28T07:13:40.948Z,23.49
2023-01-28T07:14:40.933Z,23.50
2023-01-28T07:15:40.919Z,23.50
2023-01-28T07:16:40.945Z,23.49
2023-01-28T07:17:40.901Z,23.50
2023-01-28T07:18:40.894Z,23.52
2023-01-28T07:19:40.910Z,23.50
2023-01-28T07:20:40.901Z,23.53
2023-01-28T07:21:40.867Z,23.53
2023-01-28T07:22:40.868Z,23.53
2023-01-28T07:23:40.857Z,23.53
2023-01-28T07:24:40.847Z,23.53
2023-01-28T07:25:40.831Z,23.53
2023-01-28T07:26:40.822Z,23.52
2023-01-28T07:27:40.816Z,23.52
2023-01-28T07:28:40.801Z,23.52
2023-01-28T07:29:40.802Z,23.54
2023-01-28T07:30:40.851Z,23.52
2023-01-28T07:31:40.904Z,23.54
2023-01-28T07:32:40.771Z,23.54
2023-01-28T07:33:40.773Z,23.53
2023-01-28T07:34:40.752Z,23.52
2023-01-28T07:35:40.765Z,23.54
2023-01-28T07:36:40.733Z,23.52
2023-01-28T07:37:40.734Z,23.53
2023-01-28T07:38:40.714Z,23.52
2023-01-28T07:39:40.712Z,23.52
2023-01-28T07:40:40.695Z,23.52
2023-01-28T07:41:40.699Z,23.50
2023-01-28T07:42:40.677Z,23.50
2023-01-28T07:43:40.669Z,23.53
2023-01-28T07:44:40.661Z,23.53
2023-01-28T07:45:40.663Z,23.50
2023-01-28T07:46:40.643Z,23.50
2023-01-28T07:47:40.640Z,23.52
2023-01-28T07:48:40.628Z,23.52
2023-01-28T07:49:40.618Z,23.49
2023-01-28T07:50:40.622Z,23.52
2023-01-28T07:51:40.689Z,23.52
2023-01-28T07:52:40.589Z,23.53
2023-01-28T07:53:40.578Z,23.54
2023-01-28T07:54:40.571Z,23.53
2023-01-28T07:55:40.585Z,23.56
2023-01-28T07:56:40.560Z,23.54
2023-01-28T07:57:40.545Z,23.56
2023-01-28T07:58:40.531Z,23.54
2023-01-28T07:59:40.525Z,23.53
2023-01-28T08:00:40.522Z,23.54
2023-01-28T08:01:40.543Z,23.54
2023-01-28T08:02:40.500Z,23.56
2023-01-28T08:03:40.491Z,23.57
2023-01-28T08:04:40.698Z,23.56
2023-01-28T08:05:40.471Z,23.56
2023-01-28T08:06:40.465Z,23.56
2023-01-28T08:07:40.485Z,23.54
2023-01-28T08:08:40.441Z,23.56
2023-01-28T08:09:40.434Z,23.56
2023-01-28T08:10:40.456Z,23.54
2023-01-28T08:11:40.426Z,23.57
2023-01-28T08:12:40.407Z,23.53
2023-01-28T08:13:40.407Z,23.53
2023-01-28T08:14:40.391Z,23.56
2023-01-28T08:15:40.416Z,23.54
2023-01-28T08:16:40.373Z,23.57
2023-01-28T08:17:40.366Z,23.54
2023-01-28T08:18:40.376Z,23.54
2023-01-28T08:19:40.349Z,23.56
2023-01-28T08:20:40.336Z,23.52
2023-01-28T08:21:40.336Z,23.50
2023-01-28T08:22:40.324Z,23.52
2023-01-28T08:23:40.349Z,23.52
2023-01-28T08:24:40.300Z,23.53
2023-01-28T08:25:40.302Z,23.53
2023-01-28T08:26:40.280Z,23.53
2023-01-28T08:27:40.275Z,23.54
2023-01-28T08:28:40.280Z,23.53
2023-01-28T08:29:40.260Z,23.54
2023-01-28T08:30:40.285Z,23.53
2023-01-28T08:31:40.294Z,23.54
2023-01-28T08:32:40.230Z,23.54
2023-01-28T08:33:40.223Z,23.54
2023-01-28T08:34:40.215Z,23.56
2023-01-28T08:35:40.245Z,23.57
2023-01-28T08:36:40.196Z,23.57
2023-01-28T08:37:40.210Z,23.54
2023-01-28T08:38:40.182Z,23.54
2023-01-28T08:39:40.187Z,23.54
2023-01-28T08:40:40.163Z,23.56
2023-01-28T08:41:40.186Z,23.54
2023-01-28T08:43:40.132Z,23.54
2023-01-28T08:44:40.125Z,23.56
2023-01-28T08:45:40.117Z,23.54
2023-01-28T08:46:40.207Z,23.54
2023-01-28T08:47:40.098Z,23.56
2023-01-28T08:48:40.086Z,23.56
2023-01-28T08:49:40.074Z,23.56
2023-01-28T08:50:40.069Z,23.56
2023-01-28T08:51:40.057Z,23.56
2023-01-28T08:52:40.059Z,23.59
2023-01-28T08:53:40.040Z,23.60
2023-01-28T08:54:40.030Z,23.59
2023-01-28T08:55:40.047Z,23.60
2023-01-28T08:56:40.018Z,23.59
2023-01-28T08:57:40.024Z,23.56
2023-01-28T08:58:39.994Z,23.56
2023-01-28T08:59:39.986Z,23.60
2023-01-28T09:00:39.991Z,23.59
2023-01-28T09:01:40.018Z,23.59
2023-01-28T09:02:39.968Z,23.60
2023-01-28T09:03:39.971Z,23.59
2023-01-28T09:04:39.950Z,23.59
2023-01-28T09:05:39.958Z,23.57
2023-01-28T09:06:39.928Z,23.57
2023-01-28T09:07:39.923Z,23.57
2023-01-28T09:08:39.907Z,23.57
2023-01-28T09:09:39.896Z,23.59
2023-01-28T09:10:39.887Z,23.56
2023-01-28T09:11:39.902Z,23.59
2023-01-28T09:12:39.873Z,23.56
2023-01-28T09:13:39.866Z,23.60
2023-01-28T09:14:39.851Z,23.60
2023-01-28T09:15:39.840Z,23.60
2023-01-28T09:16:39.838Z,23.60
2023-01-28T09:17:39.825Z,23.61
2023-01-28T09:18:39.819Z,23.57
2023-01-28T09:19:39.806Z,23.61
2023-01-28T09:21:39.790Z,23.57
2023-01-28T09:22:39.780Z,23.57
2023-01-28T09:23:39.775Z,23.59
2023-01-28T09:24:39.762Z,23.59
2023-01-28T09:29:39.720Z,23.56
2023-01-28T09:42:39.632Z,23.60
2023-01-28T10:02:39.436Z,23.60
2023-01-28T10:06:39.388Z,23.60
2023-01-28T10:07:39.374Z,23.63
2023-01-28T10:08:39.363Z,23.61
2023-01-28T10:09:39.358Z,23.63
2023-01-28T10:10:39.352Z,23.61
2023-01-28T10:11:39.345Z,23.61
2023-01-28T10:12:39.336Z,23.59
2023-01-28T10:13:39.324Z,23.61
2023-01-28T10:14:39.311Z,23.61
2023-01-28T10:15:39.335Z,23.63
2023-01-28T10:16:39.307Z,23.60
2023-01-28T10:17:39.418Z,23.60
2023-01-28T10:18:39.279Z,23.60
2023-01-28T10:19:39.274Z,23.57
2023-01-28T10:20:39.262Z,23.60
2023-01-28T10:21:39.262Z,23.59
2023-01-28T10:22:39.244Z,23.59
2023-01-28T10:23:39.241Z,23.61
2023-01-28T10:24:39.231Z,23.59
2023-01-28T10:25:39.215Z,23.60
2023-01-28T10:26:39.206Z,23.60
2023-01-28T10:27:39.199Z,23.61
2023-01-28T10:28:39.187Z,23.61
2023-01-28T10:29:39.178Z,23.61
2023-01-28T10:30:39.193Z,23.63
2023-01-28T10:31:39.401Z,23.64
2023-01-28T10:32:39.151Z,23.63
2023-01-28T10:33:39.150Z,23.64
2023-01-28T10:34:39.136Z,23.63
2023-01-28T10:35:39.127Z,23.66
2023-01-28T10:36:39.120Z,23.64
2023-01-28T10:37:39.107Z,23.64
2023-01-28T10:39:39.098Z,23.64
2023-01-28T10:40:39.079Z,23.64
2023-01-28T10:41:51.821Z,23.64
2023-01-28T10:42:39.067Z,23.64
2023-01-28T10:43:39.053Z,23.64
2023-01-28T10:44:39.052Z,23.63
2023-01-28T10:45:39.065Z,23.64
2023-01-28T10:46:39.028Z,23.63
2023-01-28T10:47:39.044Z,23.66
2023-01-28T10:48:39.008Z,23.66
2023-01-28T10:49:39.038Z,23.66
2023-01-28T10:50:38.987Z,23.67
2023-01-28T10:51:38.992Z,23.64
2023-01-28T10:52:38.978Z,23.68
2023-01-28T10:53:38.965Z,23.70
2023-01-28T10:54:38.955Z,23.66
2023-01-28T10:55:38.948Z,23.70
2023-01-28T10:56:38.936Z,23.70
2023-01-28T10:57:38.931Z,23.71
2023-01-28T10:58:38.920Z,23.70
2023-01-28T10:59:38.912Z,23.70
2023-01-28T11:00:38.898Z,23.71
2023-01-28T11:01:38.892Z,23.70
2023-01-28T11:02:38.894Z,23.71
2023-01-28T11:03:38.904Z,23.74
2023-01-28T11:04:38.865Z,23.71
2023-01-28T11:05:38.861Z,23.73
2023-01-28T11:06:38.855Z,23.71
2023-01-28T11:07:38.838Z,23.73
2023-01-28T11:08:38.833Z,23.73
2023-01-28T11:09:38.827Z,23.74
2023-01-28T11:10:38.815Z,23.74
2023-01-28T11:11:38.801Z,23.73
2023-01-28T11:12:38.792Z,23.74
2023-01-28T11:13:38.787Z,23.74
2023-01-28T11:14:38.776Z,23.76
2023-01-28T11:15:38.766Z,23.76
2023-01-28T11:16:38.756Z,23.77
2023-01-28T11:17:38.865Z,23.77
2023-01-28T11:18:38.746Z,23.76
2023-01-28T11:19:38.769Z,23.77
2023-01-28T11:20:38.730Z,23.76
2023-01-28T11:21:38.714Z,23.74
2023-01-28T11:22:38.702Z,23.74
2023-01-28T11:23:38.692Z,23.74
2023-01-28T11:24:38.687Z,23.74
2023-01-28T11:25:38.687Z,23.73
2023-01-28T11:26:38.696Z,23.74
2023-01-28T11:28:38.663Z,23.74
2023-01-28T11:29:38.643Z,23.73
2023-01-28T11:30:38.702Z,23.74
2023-01-28T11:31:38.654Z,23.74
2023-01-28T11:32:38.614Z,23.73
2023-01-28T11:33:38.625Z,23.78
2023-01-28T11:34:38.596Z,23.76
2023-01-28T11:35:38.615Z,23.77
2023-01-28T11:36:38.575Z,23.74
2023-01-28T11:37:38.570Z,23.76
2023-01-28T11:38:38.568Z,23.77
2023-01-28T11:39:38.549Z,23.76
2023-01-28T11:40:38.541Z,23.77
2023-01-28T11:41:38.537Z,23.77
2023-01-28T11:42:38.532Z,23.81
2023-01-28T11:43:38.513Z,23.80
2023-01-28T11:44:38.548Z,23.81
2023-01-28T11:45:38.585Z,23.81
2023-01-28T11:46:38.493Z,23.80
2023-01-28T11:47:38.476Z,23.81
2023-01-28T11:48:38.470Z,23.81
2023-01-28T11:49:38.462Z,23.84
2023-01-28T11:50:38.455Z,23.83
2023-01-28T11:51:38.473Z,23.84
2023-01-28T11:53:02.590Z,23.87
2023-01-28T11:53:38.429Z,23.87
2023-01-28T11:54:38.414Z,23.84
2023-01-28T11:55:38.434Z,23.85
2023-01-28T11:56:38.436Z,23.88
2023-01-28T11:57:38.387Z,23.88
2023-01-28T11:58:38.381Z,23.87
2023-01-28T11:59:38.379Z,23.88
2023-01-28T12:00:38.411Z,23.88
2023-01-28T12:01:38.356Z,23.89
2023-01-28T12:02:38.392Z,23.91
2023-01-28T12:03:38.333Z,23.91
2023-01-28T12:04:38.332Z,23.89
2023-01-28T12:05:38.319Z,23.89
2023-01-28T12:06:38.312Z,23.91
2023-01-28T12:07:38.327Z,23.93
2023-01-28T12:08:38.291Z,23.89
2023-01-28T12:09:38.280Z,23.93
2023-01-28T12:10:38.278Z,23.93
2023-01-28T12:11:38.276Z,23.89
2023-01-28T12:12:38.261Z,23.94
2023-01-28T12:13:38.246Z,23.95
2023-01-28T12:14:38.241Z,23.94
2023-01-28T12:15:38.272Z,23.95
2023-01-28T12:16:38.224Z,23.95
2023-01-28T12:17:38.226Z,23.97
2023-01-28T12:18:38.205Z,23.95
2023-01-28T12:19:38.193Z,23.95
2023-01-28T12:20:38.179Z,23.94
2023-01-28T12:21:38.189Z,23.98
2023-01-28T12:22:38.172Z,23.98
2023-01-28T12:23:38.182Z,24.00
2023-01-28T12:24:38.167Z,24.00
2023-01-28T12:25:38.144Z,24.00
2023-01-28T12:26:38.125Z,24.01
2023-01-28T12:27:38.122Z,23.98
2023-01-28T12:28:38.111Z,23.95
2023-01-28T12:29:38.110Z,23.94
2023-01-28T12:30:38.090Z,23.93
2023-01-28T12:31:38.231Z,23.91
2023-01-28T12:32:38.075Z,23.89
2023-01-28T12:33:38.065Z,23.84
2023-01-28T12:34:38.057Z,23.84
2023-01-28T12:35:38.045Z,23.83
2023-01-28T12:36:38.041Z,23.85
2023-01-28T12:37:38.028Z,23.85
2023-01-28T12:38:38.092Z,23.83
2023-01-28T12:39:38.049Z,23.81
2023-01-28T12:40:38.002Z,23.80
2023-01-28T12:41:37.994Z,23.80
2023-01-28T12:42:37.984Z,23.81
2023-01-28T12:43:37.977Z,23.81
2023-01-28T12:44:37.964Z,23.80
2023-01-28T12:45:37.999Z,23.83
2023-01-28T12:46:37.949Z,23.80
2023-01-28T12:47:37.939Z,23.78
2023-01-28T12:48:37.928Z,23.78
2023-01-28T12:49:37.921Z,23.77
2023-01-28T12:50:37.912Z,23.76
2023-01-28T12:51:37.904Z,23.76
2023-01-28T12:52:37.902Z,23.74
2023-01-28T12:53:37.885Z,23.74
2023-01-28T12:54:37.873Z,23.74
2023-01-28T12:55:37.906Z,23.74
2023-01-28T12:56:37.862Z,23.74
2023-01-28T12:57:37.849Z,23.78
2023-01-28T12:58:37.843Z,23.78
2023-01-28T12:59:37.830Z,23.80
2023-01-28T13:00:37.830Z,23.80
2023-01-28T13:01:37.969Z,23.81
2023-01-28T13:02:37.803Z,23.80
2023-01-28T13:03:37.791Z,23.78
2023-01-28T13:04:39.861Z,23.81
2023-01-28T13:05:37.790Z,23.83
2023-01-28T13:06:37.768Z,23.85
2023-01-28T13:07:37.758Z,23.83
2023-01-28T13:08:37.750Z,23.84
2023-01-28T13:09:37.748Z,23.83
2023-01-28T13:10:37.736Z,23.85
2023-01-28T13:11:37.751Z,23.84
2023-01-28T13:12:37.715Z,23.84
2023-01-28T13:13:37.717Z,23.83
2023-01-28T13:14:37.706Z,23.81
2023-01-28T13:15:37.688Z,23.83
2023-01-28T13:16:38.221Z,23.83
2023-01-28T13:17:37.675Z,23.84
2023-01-28T13:18:37.660Z,23.83
2023-01-28T13:19:37.652Z,23.84
2023-01-28T13:20:37.650Z,23.84
2023-01-28T13:21:48.573Z,23.84
2023-01-28T13:22:37.646Z,23.81
2023-01-28T13:23:37.620Z,23.83
2023-01-28T13:24:37.610Z,23.84
2023-01-28T13:25:37.628Z,23.85
2023-01-28T13:26:37.589Z,23.87
2023-01-28T13:27:37.608Z,23.87
2023-01-28T13:28:37.571Z,23.83
2023-01-28T13:29:37.563Z,23.81
2023-01-28T13:30:37.602Z,23.80
2023-01-28T13:31:37.546Z,23.78
2023-01-28T13:32:37.627Z,23.77
2023-01-28T13:33:37.532Z,23.76
2023-01-28T13:34:37.514Z,23.77
2023-01-28T13:35:37.520Z,23.78
2023-01-28T13:36:37.507Z,23.78
2023-01-28T13:37:37.492Z,23.80
2023-01-28T13:38:37.480Z,23.76
2023-01-28T13:39:37.475Z,23.76
2023-01-28T13:40:37.493Z,23.77
2023-01-28T13:41:37.468Z,23.74
2023-01-28T13:42:37.465Z,23.74
2023-01-28T13:43:37.492Z,23.76
2023-01-28T13:44:37.427Z,23.76
2023-01-28T13:45:37.443Z,23.76
2023-01-28T13:46:37.428Z,23.74
2023-01-28T13:47:37.409Z,23.74
2023-01-28T13:48:37.391Z,23.74
2023-01-28T13:49:37.383Z,23.76
2023-01-28T13:50:37.376Z,23.74
2023-01-28T13:51:37.366Z,23.73
2023-01-28T13:52:37.353Z,23.73
2023-01-28T13:53:37.345Z,23.71
2023-01-28T13:54:37.340Z,23.73
2023-01-28T13:55:44.617Z,23.70
2023-01-28T13:56:37.865Z,23.71
2023-01-28T13:57:37.343Z,23.71
2023-01-28T13:58:37.303Z,23.71
2023-01-28T13:59:37.319Z,23.71
2023-01-28T14:00:37.287Z,23.70
2023-01-28T14:01:37.325Z,23.70
2023-01-28T14:02:37.271Z,23.67
2023-01-28T14:03:37.258Z,23.70
2023-01-28T14:04:37.291Z,23.67
2023-01-28T14:05:37.244Z,23.66
2023-01-28T14:06:37.230Z,23.67
2023-01-28T14:07:37.222Z,23.68
2023-01-28T14:08:37.219Z,23.67
2023-01-28T14:09:37.215Z,23.66
2023-01-28T14:10:37.287Z,23.66
2023-01-28T14:11:37.186Z,23.64
2023-01-28T14:12:37.194Z,23.63
2023-01-28T14:13:37.171Z,23.64
2023-01-28T14:14:37.158Z,23.64
2023-01-28T14:15:37.207Z,23.64
2023-01-28T14:16:37.146Z,23.66
2023-01-28T14:17:37.130Z,23.67
2023-01-28T14:18:37.126Z,23.68
2023-01-28T14:19:37.113Z,23.66
2023-01-28T14:20:37.106Z,23.67
2023-01-28T14:21:37.099Z,23.68
2023-01-28T14:22:37.090Z,23.67
2023-01-28T14:23:37.081Z,23.64
2023-01-28T14:24:37.069Z,23.66
2023-01-28T14:25:37.063Z,23.64
2023-01-28T14:26:37.058Z,23.67
2023-01-28T14:27:37.080Z,23.66
2023-01-28T14:28:37.036Z,23.67
2023-01-28T14:29:37.046Z,23.66
2023-01-28T14:30:37.016Z,23.66
2023-01-28T14:31:37.248Z,23.67
2023-01-28T14:32:37.004Z,23.67
2023-01-28T14:33:37.003Z,23.68
2023-01-28T14:34:36.977Z,23.67
2023-01-28T14:35:36.971Z,23.67
2023-01-28T14:36:36.967Z,23.66
2023-01-28T14:37:36.951Z,23.66
2023-01-28T14:38:36.950Z,23.68
2023-01-28T14:39:36.940Z,23.70
2023-01-28T14:40:36.938Z,23.68
2023-01-28T14:41:36.916Z,23.68
2023-01-28T14:42:36.913Z,23.68
2023-01-28T14:43:36.896Z,23.64
2023-01-28T14:44:36.894Z,23.66
2023-01-28T14:45:36.883Z,23.67
2023-01-28T14:46:36.911Z,23.67
2023-01-28T14:47:36.885Z,23.66
2023-01-28T14:48:36.853Z,23.67
2023-01-28T14:49:36.842Z,23.67
2023-01-28T14:50:36.833Z,23.68
2023-01-28T14:51:36.825Z,23.68
2023-01-28T14:52:36.815Z,23.68
2023-01-28T14:53:36.810Z,23.73
2023-01-28T14:54:36.798Z,23.73
2023-01-28T14:55:36.796Z,23.73
2023-01-28T14:56:36.778Z,23.73
2023-01-28T14:57:36.773Z,23.73
2023-01-28T14:58:36.768Z,23.76
2023-01-28T14:59:36.754Z,23.76
2023-01-28T15:00:36.762Z,23.76
2023-01-28T15:01:36.774Z,23.77
2023-01-28T15:02:36.787Z,23.77
2023-01-28T15:03:36.845Z,23.76
2023-01-28T15:04:36.708Z,23.77
2023-01-28T15:05:36.705Z,23.76
2023-01-28T15:07:36.685Z,23.78
2023-01-28T15:08:37.195Z,23.77
2023-01-28T15:09:36.671Z,23.76
2023-01-28T15:10:36.660Z,23.77
2023-01-28T15:11:36.649Z,23.81
2023-01-28T15:12:36.636Z,23.80
2023-01-28T15:13:36.636Z,23.80
2023-01-28T15:14:36.628Z,23.80
2023-01-28T15:15:36.643Z,23.80
2023-01-28T15:16:36.602Z,23.80
2023-01-28T15:17:36.594Z,23.83
2023-01-28T15:18:36.588Z,23.83